Flight Track Log - Related Links

Times and Time Zones

All times are in EDT time to prevent confusion due to time zone crossing. See the N960DL flight status page for this flight to view local times or setup timezone preferences in your user account.

Time Position Orientation Groundspeed Altitude Reporting Facility
EDT Latitude Longitude Course Direction KTS MPH feet Rate Location/Type
Sun 06:07:17 AM 40.0028 -82.9047 133° Southeast 134 154 1,300  Level Indianapolis Center
Sun 06:08:15 AM 40.0053 -82.9658 273° West 206 237 3,400 3,051 Climbing Indianapolis Center
Sun 06:09:15 AM 39.9808 -83.0422 247° West 255 293 7,300 3,719 Climbing Indianapolis Center
Sun 06:10:00 AM 39.6902 -82.9727 173° South  Level Estimated
Sun 06:10:16 AM 39.9011 -83.0236 170° South 288 331 10,900  Level Indianapolis Center
Sun 06:11:00 AM 39.5876 -82.9995 171° South  Level Estimated
Sun 06:11:16 AM 39.8025 -83.0106 174° South 353 406 12,400  Level Indianapolis Center
Sun 06:12:00 AM 39.5165 -82.8997 133° Southeast  Level FlightAware Approximate
Sun 06:12:16 AM 39.6908 -82.9986 175° South 394 453 15,600  Level Indianapolis Center
Sun 06:13:16 AM 39.5758 -82.9839 174° South 406 467 18,100 2,529 Climbing Indianapolis Center
Sun 06:14:17 AM 39.4575 -82.9686 174° South 418 481 20,700 2,628 Climbing Indianapolis Center
Sun 06:15:17 AM 39.3358 -82.9539 175° South 431 496 23,400 2,200 Climbing Indianapolis Center
Sun 06:16:17 AM 39.2136 -82.9403 175° South 436 502 25,100 2,350 Climbing Indianapolis Center
Sun 06:17:17 AM 39.0878 -82.9256 175° South 442 509 28,100 2,500 Climbing Indianapolis Center
Sun 06:18:17 AM 38.9711 -82.9111 175° South 425 489 30,100 2,033 Climbing Indianapolis Center
Sun 06:19:18 AM 38.8539 -82.8975 175° South 423 487 32,200 1,736 Climbing Indianapolis Center
Sun 06:20:18 AM 38.7408 -82.8833 174° South 411 473 33,600 1,100 Climbing Indianapolis Center
Sun 06:21:18 AM 38.6361 -82.8708 175° South 410 472 34,400 900 Climbing Indianapolis Center
Sun 06:22:18 AM 38.5222 -82.8575 175° South 409 471 35,400 793 Climbing Indianapolis Center
Sun 06:23:19 AM 38.4078 -82.8442 175° South 413 475 36,000 298 Climbing Indianapolis Center
Sun 06:24:19 AM 38.2928 -82.8319 175° South 414 476 36,000  Level Indianapolis Center
Sun 06:25:19 AM 38.1794 -82.8197 175° South 409 471 36,000  Level Indianapolis Center
Sun 06:26:19 AM 38.0669 -82.8100 176° South 405 466 36,000  Level Indianapolis Center
Sun 06:27:20 AM 37.9536 -82.7969 175° South 407 468 36,000  Level Indianapolis Center
Sun 06:28:20 AM 37.8389 -82.7836 175° South 411 473 36,000  Level Indianapolis Center
Sun 06:29:20 AM 37.7261 -82.7717 175° South 407 468 36,000  Level Indianapolis Center
Sun 06:30:21 AM 37.6136 -82.7703 179° South 401 461 36,000  Level Indianapolis Center
Sun 06:31:21 AM 37.5039 -82.7892 188° South 396 456 36,000  Level Indianapolis Center
Sun 06:32:21 AM 37.3769 -82.8083 187° South 395 455 36,000  Level Indianapolis Center
Sun 06:33:22 AM 37.2675 -82.8244 187° South 394 453 36,000  Level Indianapolis Center
Sun 06:34:22 AM 37.1586 -82.8419 187° South 394 453 36,000  Level Indianapolis Center
Sun 06:35:22 AM 37.0500 -82.8592 187° South 392 451 36,000  Level Indianapolis Center
Sun 06:35:40 AM 37.0347 -82.8636 193° South 388 447 36,000  Level Atlanta Center
Sun 06:36:40 AM 36.9183 -82.8808 187° South 393 452 36,000  Level Atlanta Center
Sun 06:37:23 AM 36.8383 -82.8917 186° South 399 459 36,000  Level Indianapolis Center
Sun 06:37:40 AM 36.7975 -82.8981 187° South 403 464 36,000  Level Atlanta Center
Sun 06:38:40 AM 36.6892 -82.9153 187° South 402 463 36,000  Level Atlanta Center
Sun 06:39:40 AM 36.5808 -82.9322 187° South 397 457 36,000  Level Atlanta Center
Sun 06:40:40 AM 36.4728 -82.9492 187° South 392 451 36,000  Level Atlanta Center
Sun 06:41:40 AM 36.3644 -82.9661 187° South 392 451 36,000  Level Atlanta Center
Sun 06:42:40 AM 36.2581 -82.9806 186° South 392 451 36,000  Level Atlanta Center
Sun 06:43:40 AM 36.1478 -82.9947 186° South 392 451 36,000  Level Atlanta Center
Sun 06:44:40 AM 36.0372 -83.0092 186° South 392 451 36,000  Level Atlanta Center
Sun 06:45:40 AM 35.9289 -83.0258 187° South 397 457 36,000 -450 Level Atlanta Center
Sun 06:46:40 AM 35.8206 -83.0528 191° South 397 457 35,100 -500 Descending Atlanta Center
Sun 06:47:40 AM 35.7189 -83.1025 202° Southwest 397 457 35,000 -300 Descending Atlanta Center
Sun 06:48:40 AM 35.6211 -83.1472 200° South 390 449 34,500 -1,000 Descending Atlanta Center
Sun 06:49:40 AM 35.5192 -83.1942 201° Southwest 390 449 33,000 -1,600 Descending Atlanta Center
Sun 06:50:40 AM 35.4319 -83.2358 201° Southwest 390 449 31,300 -1,900 Descending Atlanta Center
Sun 06:51:40 AM 35.3319 -83.2828 201° Southwest 390 449 29,200 -2,050 Descending Atlanta Center
Sun 06:52:40 AM 35.2281 -83.3319 201° Southwest 390 449 27,200 -1,950 Descending Atlanta Center
Sun 06:53:40 AM 35.1281 -83.3758 200° South 390 449 25,300 -1,600 Descending Atlanta Center
Sun 06:54:40 AM 35.0219 -83.4275 202° Southwest 396 456 24,000 -650 Descending Atlanta Center
Sun 06:55:40 AM 34.9200 -83.4764 201° Southwest 396 456 24,000  Level Atlanta Center
Sun 06:56:40 AM 34.8158 -83.5175 198° South 396 456 24,000  Level Atlanta Center
Sun 06:57:40 AM 34.7158 -83.5686 203° Southwest 401 461 24,000  Level Atlanta Center
Sun 06:58:40 AM 34.6094 -83.6147 200° South 393 452 24,000 -1,000 Level Atlanta Center
Sun 06:59:40 AM 34.5053 -83.6633 201° Southwest 393 452 22,000 -2,600 Descending Atlanta Center
Sun 07:00:40 AM 34.4094 -83.7217 207° Southwest 393 452 18,800 -2,850 Descending Atlanta Center
Sun 07:01:40 AM 34.3117 -83.7797 206° Southwest 393 452 16,300 -2,400 Descending Atlanta Center
Sun 07:02:40 AM 34.2197 -83.8353 207° Southwest 381 438 14,000 -1,150 Descending Atlanta Center
Sun 07:03:40 AM 34.1156 -83.8983 207° Southwest 381 438 14,000 -316 Level Atlanta Center
Sun 07:04:15 AM 34.0667 -83.9333 211° Southwest 373 429 13,500 -1,263 Descending Atlanta TRACON
Sun 07:05:15 AM 33.9667 -83.9833 203° Southwest 368 423 12,000 -789 Descending Atlanta TRACON
Sun 07:06:09 AM 33.9000 -84.0500 220° Southwest 364 419 12,000  Level Atlanta TRACON
Sun 07:06:40 AM 33.8569 -84.0914 219° Southwest 371 427 12,000  Level Atlanta Center
Sun 07:07:21 AM 33.8000 -84.1333 211° Southwest 367 422 12,000  Level Atlanta TRACON
Sun 07:08:21 AM 33.7333 -84.2167 226° Southwest 360 414 12,000 -677 Level Atlanta TRACON
Sun 07:10:27 AM 33.7333 -84.4167 270° West 253 291 9,900 -1,581 Descending Atlanta TRACON
Sun 07:11:27 AM 33.7333 -84.5000 270° West 242 278 7,100 -2,250 Descending Atlanta TRACON
Sun 07:12:27 AM 33.7333 -84.5833 270° West 273 314 5,400 -1,050 Descending Atlanta TRACON
Sun 07:13:27 AM 33.7333 -84.6667 270° West 241 277 5,000 -316 Descending Atlanta TRACON
Sun 07:14:21 AM 33.7000 -84.6833 203° Southwest 191 220 4,800 -500 Descending Atlanta TRACON
Sun 07:15:27 AM 33.6667 -84.6333 129° Southeast 174 200 4,000 -429 Descending Atlanta TRACON
Sun 07:16:27 AM 33.6500 -84.5833 112° Southeast 179 206 3,900 -450 Descending Atlanta TRACON
Sun 07:17:27 AM 33.6500 -84.5333 90° East 142 163 3,100 -800 Descending Atlanta TRACON

Login

Don't have an account? Register now (free) for customized features, flight alerts, and more!